Terminal Aerodrome Forecast
Issued by NWS

Current Version | Previous Version | Text Only | Print | Product List | Glossary Off
Versions: 1 2 3 4 5 6 7 8 9 10 11 12 13 14 15 16 17 18 19 20 21 22 23 24 25 26

000
FTUS42 KILM 262329
TAFCRE
TAF
KCRE 262329Z 2700/2724 22014KT P6SM VCSH SCT015 BKN100
      TEMPO 2700/2702 4SM BR SCT004
     FM270500 20011KT 5SM -RA BR SCT004 SCT015 BKN040
      TEMPO 2706/2708 3SM -RA BR BKN004 BKN015
     FM270800 23007KT 3SM SHRA BR BKN004 BKN015 OVC040
      TEMPO 2708/2712 2SM TSRA BR SCT004 BKN015CB
     FM271200 24008KT 6SM -RA BKN006 OVC090
      TEMPO 2715/2717 24025KT 1SM +TSRA BKN012CB
     FM271700 35012G20KT 6SM -RA BKN006 OVC012=

USA.gov is the U.S. government's official web portal to all federal, state and local government web resources and services.